Time;durP1;ratioP1;P1;durP2;ratioP2;P2;SDS_P1;SDS_P2;PMS_P1;PMS_P2;Temp;Humidity;BMP_temperature;BMP_pressure;BME280_temperature;BME280_humidity;BME280_pressure;Samples;Min_cycle;Max_cycle;Signal;HPM_P1;HPM_P2
2023/06/02 00:01:06;;;;;;;8.93;2.53;;;10.80;69.10;;;;;;5034111;28;20344;-68
2023/06/02 00:03:33;;;;;;;9.18;2.50;;;10.80;69.10;;;;;;5049471;28;20051;-69
2023/06/02 00:06:05;;;;;;;9.88;2.60;;;10.80;69.30;;;;;;5036899;28;20045;-69
2023/06/02 00:08:32;;;;;;;13.77;2.60;;;10.80;69.30;;;;;;5028281;28;20148;-69
2023/06/02 00:10:58;;;;;;;9.30;2.30;;;10.80;69.30;;;;;;5031319;28;20445;-69
2023/06/02 00:13:25;;;;;;;13.73;2.70;;;10.80;69.20;;;;;;5037506;28;20386;-68
2023/06/02 00:15:51;;;;;;;9.95;2.60;;;10.80;69.30;;;;;;5044267;28;20120;-69
2023/06/02 00:18:17;;;;;;;11.02;2.60;;;10.80;69.30;;;;;;5032733;28;20045;-69
2023/06/02 00:20:44;;;;;;;12.65;2.13;;;10.70;69.30;;;;;;5032122;28;20614;-68
2023/06/02 00:23:09;;;;;;;9.90;2.70;;;10.70;69.40;;;;;;5032472;28;20051;-68
2023/06/02 00:25:36;;;;;;;16.48;2.85;;;10.70;69.40;;;;;;5036780;28;20045;-70
2023/06/02 00:28:02;;;;;;;11.45;2.38;;;10.80;69.50;;;;;;5039645;28;20067;-70
2023/06/02 00:30:28;;;;;;;11.95;2.47;;;10.70;69.50;;;;;;5043215;28;20045;-70
2023/06/02 00:32:54;;;;;;;14.68;2.90;;;10.70;69.60;;;;;;5038801;28;20118;-69
2023/06/02 00:35:20;;;;;;;12.00;2.60;;;10.70;70.10;;;;;;5045065;28;20072;-68
2023/06/02 00:37:46;;;;;;;15.05;2.80;;;10.60;69.40;;;;;;5031250;28;20139;-69
2023/06/02 00:40:12;;;;;;;13.25;2.55;;;10.60;69.40;;;;;;5043135;28;20042;-69
2023/06/02 00:42:38;;;;;;;9.90;2.63;;;10.60;69.50;;;;;;5037547;28;20036;-70
2023/06/02 00:45:04;;;;;;;11.02;2.65;;;10.50;69.50;;;;;;5055985;28;20120;-68
2023/06/02 00:47:30;;;;;;;6.63;2.00;;;10.50;69.60;;;;;;5040090;28;20052;-67
2023/06/02 00:49:57;;;;;;;9.50;2.75;;;10.40;69.70;;;;;;5047836;28;20037;-70
2023/06/02 00:52:23;;;;;;;14.00;2.70;;;10.30;69.90;;;;;;5027765;28;20037;-69
2023/06/02 00:54:48;;;;;;;9.70;2.40;;;10.30;70.10;;;;;;5025347;28;20037;-69
2023/06/02 00:57:14;;;;;;;10.10;2.65;;;10.20;70.30;;;;;;5040602;28;20109;-69
2023/06/02 00:59:40;;;;;;;11.73;2.53;;;10.10;70.40;;;;;;5037219;28;20047;-70
2023/06/02 01:02:07;;;;;;;7.97;2.60;;;10.10;70.60;;;;;;5053576;28;20370;-69
2023/06/02 01:04:36;;;;;;;13.93;2.65;;;10.10;70.80;;;;;;5036007;28;20155;-69
2023/06/02 01:07:03;;;;;;;10.77;2.92;;;10.10;71.00;;;;;;5029800;28;20037;-68
2023/06/02 01:09:29;;;;;;;16.30;3.40;;;10.10;71.00;;;;;;5038518;28;20041;-69
2023/06/02 01:11:56;;;;;;;9.52;2.50;;;10.10;71.10;;;;;;5043181;28;20121;-69
2023/06/02 01:14:22;;;;;;;14.05;2.85;;;10.10;71.20;;;;;;5038438;28;20798;-68
2023/06/02 01:16:51;;;;;;;10.85;2.30;;;10.10;71.30;;;;;;5033885;28;20048;-69
2023/06/02 01:19:21;;;;;;;9.52;2.45;;;10.10;71.50;;;;;;5033227;28;20107;-70
2023/06/02 01:21:59;;;;;;;14.30;2.17;;;10.10;71.50;;;;;;5039446;28;20060;-70
2023/06/02 01:24:36;;;;;;;12.75;2.30;;;10.10;71.70;;;;;;5032732;28;20034;-69
2023/06/02 01:27:08;;;;;;;9.52;2.25;;;10.10;71.70;;;;;;5033448;28;22259;-69
2023/06/02 01:29:35;;;;;;;10.20;2.75;;;10.10;71.60;;;;;;5037860;28;20036;-69
2023/06/02 01:32:10;;;;;;;13.85;2.53;;;10.10;71.70;;;;;;5034152;28;20041;-70
2023/06/02 01:34:47;;;;;;;13.25;2.28;;;10.10;71.70;;;;;;5037175;28;20032;-69
2023/06/02 01:37:14;;;;;;;12.25;2.35;;;10.10;71.80;;;;;;5040258;28;20503;-68
2023/06/02 01:39:41;;;;;;;13.38;2.53;;;10.10;71.70;;;;;;5040474;28;20037;-69
2023/06/02 01:42:10;;;;;;;9.23;2.00;;;10.10;71.70;;;;;;5034559;28;20130;-69
2023/06/02 01:44:37;;;;;;;7.95;2.38;;;10.10;71.80;;;;;;5034547;28;20151;-69
2023/06/02 01:47:03;;;;;;;9.23;2.28;;;10.10;71.70;;;;;;5034152;28;20055;-68
2023/06/02 01:49:29;;;;;;;11.73;1.83;;;10.20;71.70;;;;;;5031309;28;20070;-69
2023/06/02 01:51:54;;;;;;;12.57;2.10;;;10.20;71.60;;;;;;5043328;28;20037;-67
2023/06/02 01:54:21;;;;;;;15.20;2.13;;;10.20;71.70;;;;;;5047778;28;20044;-69
2023/06/02 01:56:47;;;;;;;13.85;2.58;;;10.20;71.80;;;;;;5049599;28;20041;-69
2023/06/02 01:59:13;;;;;;;12.23;2.47;;;10.30;72.60;;;;;;5047641;28;20055;-69
2023/06/02 02:01:40;;;;;;;13.30;2.03;;;10.20;71.80;;;;;;5046896;28;20123;-69
2023/06/02 02:04:06;;;;;;;12.93;2.35;;;10.20;71.90;;;;;;5028925;28;20554;-67
2023/06/02 02:06:32;;;;;;;8.70;1.63;;;10.20;71.90;;;;;;5033789;28;20081;-69
2023/06/02 02:09:03;;;;;;;8.93;1.90;;;10.20;72.00;;;;;;5052306;28;20173;-69
2023/06/02 02:11:29;;;;;;;7.43;2.30;;;10.30;72.00;;;;;;5038639;28;20042;-69
2023/06/02 02:13:55;;;;;;;13.77;2.67;;;10.20;72.00;;;;;;5044408;28;20050;-69
2023/06/02 02:16:21;;;;;;;8.43;2.03;;;10.30;72.20;;;;;;5035404;28;20681;-67
2023/06/02 02:18:47;;;;;;;9.93;2.10;;;10.30;72.20;;;;;;5038143;28;20044;-70
2023/06/02 02:21:13;;;;;;;11.00;2.05;;;10.40;72.30;;;;;;5038724;28;20048;-69
2023/06/02 02:23:39;;;;;;;7.63;2.60;;;10.30;72.10;;;;;;5021915;28;20128;-69
2023/06/02 02:26:05;;;;;;;12.15;2.28;;;10.30;72.20;;;;;;5034841;28;20132;-69
2023/06/02 02:28:31;;;;;;;9.50;2.03;;;10.30;72.30;;;;;;5035973;28;20042;-69
2023/06/02 02:30:57;;;;;;;10.25;1.98;;;10.40;72.40;;;;;;5041152;28;20086;-69
2023/06/02 02:33:22;;;;;;;7.18;1.88;;;10.40;72.40;;;;;;5033210;28;20060;-68
2023/06/02 02:35:48;;;;;;;10.40;1.88;;;10.40;72.50;;;;;;5034871;28;20099;-69
2023/06/02 02:38:14;;;;;;;6.32;2.22;;;10.40;72.50;;;;;;5037116;28;20041;-69
2023/06/02 02:40:39;;;;;;;10.45;1.95;;;10.40;72.50;;;;;;5033381;28;20113;-70
2023/06/02 02:43:05;;;;;;;9.55;2.38;;;10.40;72.60;;;;;;5035815;28;20049;-68
2023/06/02 02:45:30;;;;;;;10.30;2.00;;;10.40;72.60;;;;;;5035549;28;20068;-69
2023/06/02 02:47:56;;;;;;;12.55;2.17;;;10.50;72.60;;;;;;5038075;28;20052;-69
2023/06/02 02:50:22;;;;;;;10.95;1.98;;;10.50;72.70;;;;;;5039474;28;20041;-69
2023/06/02 02:52:47;;;;;;;14.00;2.40;;;10.50;72.80;;;;;;5027817;28;20496;-69
2023/06/02 02:55:13;;;;;;;13.50;2.45;;;10.50;72.80;;;;;;5032882;28;20032;-70
2023/06/02 02:57:39;;;;;;;8.63;2.28;;;10.50;73.00;;;;;;5019752;28;20036;-70
2023/06/02 03:00:09;;;;;;;10.75;2.05;;;10.50;73.00;;;;;;5035249;28;20372;-69
2023/06/02 03:02:35;;;;;;;14.25;2.92;;;10.50;73.10;;;;;;5017598;28;20038;-68
2023/06/02 03:05:02;;;;;;;7.63;2.70;;;10.50;73.20;;;;;;5036453;28;20048;-69
2023/06/02 03:07:31;;;;;;;12.38;2.53;;;10.50;73.30;;;;;;5028639;28;20037;-67
2023/06/02 03:09:57;;;;;;;13.35;2.33;;;10.50;73.30;;;;;;5038624;28;20071;-68
2023/06/02 03:12:22;;;;;;;11.98;2.38;;;10.50;74.10;;;;;;5039429;28;20584;-68
2023/06/02 03:14:48;;;;;;;8.43;2.03;;;10.50;73.40;;;;;;5034487;28;20503;-70
2023/06/02 03:17:14;;;;;;;10.82;1.80;;;10.50;73.50;;;;;;5034228;28;20817;-68
2023/06/02 03:19:40;;;;;;;10.35;1.90;;;10.50;73.60;;;;;;5031125;28;20456;-70
2023/06/02 03:22:06;;;;;;;9.80;2.47;;;10.50;73.70;;;;;;5035119;28;20528;-70
2023/06/02 03:24:32;;;;;;;10.93;2.20;;;10.50;73.70;;;;;;5031937;28;20072;-69
2023/06/02 03:26:58;;;;;;;13.95;2.45;;;10.50;73.80;;;;;;5051082;28;20386;-69
2023/06/02 03:29:23;;;;;;;15.70;2.58;;;10.60;73.90;;;;;;5040251;28;20151;-69
2023/06/02 03:31:54;;;;;;;8.27;1.83;;;10.60;73.90;;;;;;5028818;28;20434;-69
2023/06/02 03:34:20;;;;;;;11.40;2.33;;;10.60;74.10;;;;;;5026474;28;20037;-69
2023/06/02 03:36:46;;;;;;;12.10;2.10;;;10.60;74.00;;;;;;5030151;28;20038;-70
2023/06/02 03:39:13;;;;;;;12.85;2.47;;;10.60;74.10;;;;;;5033328;28;20583;-69
2023/06/02 03:41:39;;;;;;;13.35;2.80;;;10.60;74.30;;;;;;5040555;28;20109;-69
2023/06/02 03:44:05;;;;;;;13.30;3.05;;;10.60;74.40;;;;;;5040419;28;20048;-70
2023/06/02 03:46:31;;;;;;;10.80;2.53;;;10.60;74.40;;;;;;5039227;28;20065;-67
2023/06/02 03:48:57;;;;;;;10.77;2.25;;;10.70;74.60;;;;;;5018874;28;20045;-70
2023/06/02 03:51:23;;;;;;;14.15;2.50;;;10.70;74.60;;;;;;5047991;28;20103;-69
2023/06/02 03:53:51;;;;;;;7.97;2.22;;;10.60;74.60;;;;;;5049319;28;20072;-69
2023/06/02 03:56:19;;;;;;;13.82;2.55;;;10.70;74.80;;;;;;5052219;28;20393;-69
2023/06/02 03:58:44;;;;;;;16.50;3.15;;;10.70;74.80;;;;;;5034260;28;20155;-70
2023/06/02 04:01:12;;;;;;;10.82;1.75;;;10.70;74.80;;;;;;5045881;28;20075;-69
2023/06/02 04:03:37;;;;;;;11.77;2.00;;;10.80;74.90;;;;;;5044515;28;20064;-70
2023/06/02 04:06:05;;;;;;;11.18;2.75;;;10.80;74.90;;;;;;5033923;28;20118;-69
2023/06/02 04:08:32;;;;;;;14.15;2.30;;;10.80;75.00;;;;;;5044042;28;20036;-69
2023/06/02 04:10:57;;;;;;;13.05;2.40;;;10.80;75.10;;;;;;5035837;28;20136;-68
2023/06/02 04:13:23;;;;;;;13.65;2.40;;;10.80;75.20;;;;;;5032802;28;20436;-70
2023/06/02 04:15:49;;;;;;;11.32;2.28;;;10.80;75.20;;;;;;5032164;28;20152;-70
2023/06/02 04:18:14;;;;;;;13.05;3.53;;;10.80;75.30;;;;;;5031982;28;20038;-69
2023/06/02 04:20:40;;;;;;;18.52;2.92;;;10.90;75.30;;;;;;5036311;28;20083;-68
2023/06/02 04:23:05;;;;;;;13.93;2.28;;;10.90;75.40;;;;;;5034070;28;20846;-68
2023/06/02 04:25:31;;;;;;;10.32;2.17;;;10.90;75.50;;;;;;5032557;28;20047;-68
2023/06/02 04:27:57;;;;;;;11.88;2.38;;;10.90;75.60;;;;;;5040900;28;20373;-69
2023/06/02 04:30:22;;;;;;;8.77;2.30;;;11.00;75.60;;;;;;5038108;28;20036;-67
2023/06/02 04:32:49;;;;;;;14.60;2.42;;;11.00;75.80;;;;;;5037120;28;20037;-69
2023/06/02 04:35:15;;;;;;;11.15;3.10;;;11.00;75.70;;;;;;5038485;28;20118;-70
2023/06/02 04:37:43;;;;;;;10.50;2.10;;;11.00;75.70;;;;;;5034979;28;20094;-68
2023/06/02 04:40:10;;;;;;;13.68;3.28;;;11.10;75.70;;;;;;5033116;28;20958;-68
2023/06/02 04:42:38;;;;;;;13.60;2.47;;;11.10;75.80;;;;;;5038914;28;20045;-69
2023/06/02 04:45:06;;;;;;;11.85;2.08;;;11.10;75.80;;;;;;5033474;28;20357;-70
2023/06/02 04:47:32;;;;;;;8.45;2.25;;;11.20;75.80;;;;;;5032297;28;20053;-69
2023/06/02 04:49:58;;;;;;;11.20;2.40;;;11.20;75.80;;;;;;5034208;28;20060;-69
2023/06/02 04:52:23;;;;;;;14.52;2.42;;;11.30;75.90;;;;;;5034172;28;20044;-68
2023/06/02 04:54:49;;;;;;;11.20;2.70;;;11.30;75.90;;;;;;5037612;28;20033;-70
2023/06/02 04:57:15;;;;;;;8.70;2.70;;;11.30;76.10;;;;;;5032308;28;20037;-70
2023/06/02 04:59:40;;;;;;;10.82;2.22;;;11.30;76.00;;;;;;5037025;28;20033;-67
2023/06/02 05:02:06;;;;;;;9.43;2.88;;;11.40;76.10;;;;;;5037400;28;20056;-68
2023/06/02 05:04:32;;;;;;;12.82;2.72;;;11.40;76.10;;;;;;5033515;28;20082;-69
2023/06/02 05:06:57;;;;;;;11.80;2.45;;;11.50;76.20;;;;;;5036620;28;20033;-70
2023/06/02 05:09:23;;;;;;;12.85;2.13;;;11.50;76.20;;;;;;5036356;28;20086;-67
2023/06/02 05:11:48;;;;;;;12.75;2.50;;;11.60;76.10;;;;;;5018534;28;20426;-70
2023/06/02 05:14:14;;;;;;;11.45;2.47;;;11.60;76.20;;;;;;5032833;28;20113;-68
2023/06/02 05:16:44;;;;;;;15.05;3.00;;;11.60;76.10;;;;;;5031333;28;20044;-68
2023/06/02 05:19:10;;;;;;;14.70;2.28;;;11.70;76.20;;;;;;5017377;28;20048;-69
2023/06/02 05:21:35;;;;;;;12.40;2.75;;;11.70;76.10;;;;;;5040019;28;20041;-68
2023/06/02 05:24:01;;;;;;;11.82;2.67;;;11.70;76.10;;;;;;5041894;28;20079;-69
2023/06/02 05:26:27;;;;;;;13.77;3.13;;;11.80;76.20;;;;;;5035517;28;20465;-67
2023/06/02 05:28:53;;;;;;;14.57;2.83;;;11.80;76.20;;;;;;5042663;28;20037;-67
2023/06/02 05:31:19;;;;;;;8.65;2.15;;;11.90;76.10;;;;;;5035193;28;20123;-68
2023/06/02 05:33:45;;;;;;;11.52;2.53;;;11.90;76.00;;;;;;5032262;28;20041;-67
2023/06/02 05:36:11;;;;;;;11.30;2.17;;;12.00;76.00;;;;;;5034339;28;20080;-69
2023/06/02 05:38:42;;;;;;;13.57;2.60;;;12.00;76.00;;;;;;5022175;28;20046;-69
2023/06/02 05:41:07;;;;;;;7.68;1.63;;;12.10;76.00;;;;;;5036469;28;20049;-68
2023/06/02 05:43:33;;;;;;;18.15;3.35;;;12.10;75.90;;;;;;5040674;28;20498;-69
2023/06/02 05:48:15;;;;;;;9.02;2.65;;;12.10;75.90;;;;;;5072977;28;20412;-66
2023/06/02 05:50:41;;;;;;;11.82;2.88;;;12.10;75.90;;;;;;5064712;28;20396;-68
2023/06/02 05:53:07;;;;;;;12.40;2.88;;;12.20;75.90;;;;;;5076386;28;20068;-68
2023/06/02 05:55:33;;;;;;;9.55;2.85;;;12.30;76.00;;;;;;5065730;28;20079;-68
2023/06/02 05:57:59;;;;;;;15.23;2.78;;;12.30;76.00;;;;;;5062538;28;20110;-68
2023/06/02 06:00:25;;;;;;;10.55;2.97;;;12.30;75.90;;;;;;5053602;28;20168;-68
2023/06/02 06:02:50;;;;;;;14.38;2.65;;;12.40;76.00;;;;;;5060130;28;20033;-68
2023/06/02 06:05:16;;;;;;;9.38;3.40;;;12.50;76.00;;;;;;5061719;28;20102;-66
2023/06/02 06:07:41;;;;;;;13.07;2.97;;;12.50;76.10;;;;;;5059256;28;20453;-68
2023/06/02 06:10:07;;;;;;;12.18;2.88;;;12.50;76.00;;;;;;5077633;28;20045;-68
2023/06/02 06:12:33;;;;;;;14.27;3.60;;;12.60;76.20;;;;;;5044333;28;20041;-68
2023/06/02 06:15:00;;;;;;;19.10;3.35;;;12.60;76.10;;;;;;5040778;28;20035;-69
2023/06/02 06:17:25;;;;;;;20.10;3.53;;;12.70;76.10;;;;;;5055965;28;20041;-68
2023/06/02 06:19:51;;;;;;;18.98;2.75;;;12.80;76.00;;;;;;5052215;28;20104;-67
2023/06/02 06:22:17;;;;;;;14.52;2.80;;;12.80;76.00;;;;;;5055207;28;20048;-70
2023/06/02 06:24:42;;;;;;;12.80;3.40;;;12.90;76.00;;;;;;5055493;28;20095;-68
2023/06/02 06:27:08;;;;;;;21.65;4.25;;;12.90;76.00;;;;;;5079164;28;20110;-69
2023/06/02 06:29:34;;;;;;;9.68;3.17;;;12.90;75.90;;;;;;5063472;28;20438;-68
2023/06/02 06:32:00;;;;;;;14.85;3.53;;;13.00;75.90;;;;;;5062042;28;20465;-68
2023/06/02 06:34:27;;;;;;;17.50;4.93;;;13.10;75.70;;;;;;5063189;28;20032;-68
2023/06/02 06:36:52;;;;;;;14.00;3.10;;;13.10;75.70;;;;;;5063630;28;20048;-67
2023/06/02 06:39:18;;;;;;;10.07;2.85;;;13.20;75.60;;;;;;5050308;28;20041;-68
2023/06/02 06:41:44;;;;;;;13.82;2.85;;;13.30;75.50;;;;;;5051460;28;20044;-68
2023/06/02 06:44:10;;;;;;;14.93;3.17;;;13.40;75.40;;;;;;5052790;28;20376;-69
2023/06/02 06:46:35;;;;;;;15.93;3.35;;;13.60;75.30;;;;;;5055182;28;22456;-66
2023/06/02 06:49:01;;;;;;;16.98;3.58;;;13.70;75.10;;;;;;5048766;28;20029;-68
2023/06/02 06:51:26;;;;;;;12.68;3.38;;;13.80;75.00;;;;;;5053820;28;20041;-68
2023/06/02 06:53:52;;;;;;;15.13;3.63;;;13.90;74.90;;;;;;5035245;28;20055;-67
2023/06/02 06:56:18;;;;;;;21.60;3.92;;;14.00;74.70;;;;;;5051535;28;20094;-69
2023/06/02 06:58:43;;;;;;;17.55;4.10;;;14.10;74.60;;;;;;5052431;28;20037;-69
2023/06/02 07:01:10;;;;;;;16.92;4.03;;;14.10;74.50;;;;;;5033528;28;20520;-68
2023/06/02 07:03:36;;;;;;;13.15;3.60;;;14.20;74.60;;;;;;5039247;28;20068;-68
2023/06/02 07:06:01;;;;;;;13.50;3.47;;;14.40;74.50;;;;;;5032042;28;20501;-68
2023/06/02 07:08:27;;;;;;;17.48;3.42;;;14.50;74.10;;;;;;5024866;28;20040;-68
2023/06/02 07:10:52;;;;;;;14.55;3.53;;;14.60;74.00;;;;;;5048897;28;20381;-68
2023/06/02 07:13:18;;;;;;;20.90;4.85;;;14.70;73.80;;;;;;5047940;28;20128;-69
2023/06/02 07:15:45;;;;;;;16.00;4.00;;;14.90;73.80;;;;;;5043768;28;20052;-69
2023/06/02 07:18:11;;;;;;;14.35;4.43;;;15.00;73.50;;;;;;5045451;28;20147;-68
2023/06/02 07:20:37;;;;;;;14.63;4.38;;;15.10;73.30;;;;;;5046240;28;20143;-68
2023/06/02 07:23:02;;;;;;;13.85;4.65;;;15.20;73.30;;;;;;5029116;28;20048;-69
2023/06/02 07:25:28;;;;;;;22.48;5.03;;;15.40;73.20;;;;;;5042070;28;20047;-69
2023/06/02 07:27:53;;;;;;;16.05;4.70;;;15.80;73.90;;;;;;5048302;28;20039;-68
2023/06/02 07:30:20;;;;;;;13.63;4.97;;;16.20;74.10;;;;;;5043842;28;20399;-67
2023/06/02 07:32:46;;;;;;;18.05;5.15;;;16.10;74.00;;;;;;5036972;28;20129;-67
2023/06/02 07:35:11;;;;;;;17.25;4.00;;;16.00;73.80;;;;;;5031439;28;20366;-67
2023/06/02 07:37:37;;;;;;;16.40;4.65;;;16.20;73.30;;;;;;5040904;28;20823;-67
2023/06/02 07:40:03;;;;;;;15.63;4.65;;;16.70;72.80;;;;;;5047784;28;20040;-69
2023/06/02 07:42:29;;;;;;;16.23;4.20;;;17.30;71.90;;;;;;5049650;28;20104;-67
2023/06/02 07:44:55;;;;;;;14.63;4.05;;;17.90;70.70;;;;;;5038435;28;20102;-68
2023/06/02 07:47:22;;;;;;;16.05;4.47;;;18.30;69.50;;;;;;5033880;28;20529;-68
2023/06/02 07:49:47;;;;;;;10.32;3.65;;;18.00;68.70;;;;;;5049654;28;20404;-67
2023/06/02 07:52:13;;;;;;;9.27;3.85;;;18.30;67.70;;;;;;5041655;28;20055;-68
2023/06/02 07:54:38;;;;;;;18.25;3.53;;;18.60;66.60;;;;;;5045073;28;20048;-69
2023/06/02 07:57:05;;;;;;;11.18;4.15;;;19.00;66.00;;;;;;5041514;28;20135;-68
2023/06/02 07:59:30;;;;;;;13.93;3.75;;;19.40;65.30;;;;;;5041887;28;20115;-68
2023/06/02 08:01:56;;;;;;;12.68;3.80;;;19.60;64.60;;;;;;5039563;28;20132;-70
2023/06/02 08:04:25;;;;;;;14.05;3.50;;;19.80;63.80;;;;;;5050086;28;20432;-69
2023/06/02 08:06:52;;;;;;;12.75;3.90;;;20.20;62.40;;;;;;5042684;28;20455;-68
2023/06/02 08:09:18;;;;;;;14.07;3.42;;;19.80;61.50;;;;;;5041056;28;20091;-68
2023/06/02 08:11:44;;;;;;;10.00;3.53;;;19.70;61.40;;;;;;5048202;28;20040;-69
2023/06/02 08:14:10;;;;;;;13.07;3.45;;;20.10;60.60;;;;;;5043617;28;20044;-69
2023/06/02 08:16:35;;;;;;;14.75;3.65;;;20.80;59.20;;;;;;5021549;28;20057;-69
2023/06/02 08:19:01;;;;;;;9.55;3.40;;;21.20;58.20;;;;;;5045415;28;20040;-67
2023/06/02 08:21:26;;;;;;;17.42;4.10;;;21.10;57.10;;;;;;5027775;28;20507;-68
2023/06/02 08:23:52;;;;;;;8.38;3.85;;;20.90;56.70;;;;;;5040976;28;20440;-70
2023/06/02 08:26:17;;;;;;;10.82;2.90;;;21.10;55.40;;;;;;5049865;28;20536;-68
2023/06/02 08:28:48;;;;;;;10.40;2.85;;;21.60;55.00;;;;;;5039156;28;20502;-68
2023/06/02 08:31:16;;;;;;;10.60;3.10;;;22.10;54.70;;;;;;5035367;28;20087;-68
2023/06/02 08:33:42;;;;;;;8.77;2.50;;;22.30;52.80;;;;;;5027338;28;20048;-68
2023/06/02 08:36:08;;;;;;;8.50;2.50;;;22.00;52.20;;;;;;5039401;28;20059;-67
2023/06/02 08:38:37;;;;;;;6.85;2.28;;;21.20;52.10;;;;;;5022938;28;20135;-68
2023/06/02 08:41:04;;;;;;;6.20;2.55;;;21.00;52.40;;;;;;5046892;28;20094;-68
2023/06/02 08:43:29;;;;;;;8.02;1.95;;;21.20;52.20;;;;;;5040507;28;20037;-67
2023/06/02 08:45:57;;;;;;;11.32;2.50;;;22.10;51.30;;;;;;5047197;28;20461;-68
2023/06/02 08:48:23;;;;;;;9.07;2.63;;;22.60;49.30;;;;;;5049517;28;20044;-68
2023/06/02 08:50:54;;;;;;;11.23;2.10;;;23.10;48.30;;;;;;5039201;28;20041;-68
2023/06/02 08:53:23;;;;;;;6.70;2.00;;;23.70;45.40;;;;;;5045235;28;20036;-69
2023/06/02 08:55:49;;;;;;;5.90;1.77;;;24.10;43.80;;;;;;5022210;28;20098;-68
2023/06/02 08:58:15;;;;;;;6.68;1.60;;;24.00;42.80;;;;;;5035520;28;20393;-68
2023/06/02 09:00:41;;;;;;;8.40;2.00;;;24.50;41.70;;;;;;5040187;28;20055;-67
2023/06/02 09:03:10;;;;;;;6.93;1.63;;;24.70;41.00;;;;;;5028556;28;20136;-67
2023/06/02 09:05:37;;;;;;;;;;;25.20;40.20;;;;;;5031331;28;20060;-68
2023/06/02 09:08:14;;;;;;;7.45;2.40;;;24.80;36.80;;;;;;5039314;28;19928;-67
2023/06/02 09:10:40;;;;;;;8.20;2.50;;;25.30;37.90;;;;;;5036902;28;20112;-68
2023/06/02 09:13:10;;;;;;;5.53;2.00;;;25.80;40.50;;;;;;5045859;28;20521;-67
2023/06/02 09:15:53;;;;;;;8.38;2.17;;;25.40;36.40;;;;;;5031269;28;20456;-68
2023/06/02 09:18:19;;;;;;;6.25;1.67;;;24.20;39.00;;;;;;5035551;28;20072;-67
2023/06/02 09:20:47;;;;;;;7.07;1.60;;;24.30;38.90;;;;;;5047511;28;20087;-67
2023/06/02 09:23:13;;;;;;;10.75;2.05;;;25.00;37.70;;;;;;5045238;28;20049;-68
2023/06/02 09:25:40;;;;;;;10.55;1.48;;;25.90;36.10;;;;;;5046057;28;20603;-67
2023/06/02 09:28:07;;;;;;;10.40;1.60;;;26.80;34.40;;;;;;5050103;28;20033;-68
2023/06/02 09:30:33;;;;;;;5.18;1.70;;;27.60;33.30;;;;;;5045998;28;20132;-67
2023/06/02 09:33:04;;;;;;;7.93;2.10;;;27.70;32.20;;;;;;5035430;28;20112;-66
2023/06/02 09:35:42;;;;;;;7.10;1.92;;;28.40;31.40;;;;;;5032439;28;20045;-67
2023/06/02 09:38:10;;;;;;;8.95;2.17;;;28.90;31.80;;;;;;5041766;28;20118;-67
2023/06/02 09:40:37;;;;;;;7.93;2.00;;;28.90;31.20;;;;;;5041036;28;20059;-67
2023/06/02 09:43:05;;;;;;;7.80;1.65;;;29.30;30.80;;;;;;5027928;28;20124;-67
2023/06/02 09:45:31;;;;;;;4.68;1.65;;;29.80;29.50;;;;;;5040688;28;20083;-67
2023/06/02 09:47:58;;;;;;;8.02;1.70;;;29.30;29.10;;;;;;5029174;28;20049;-67
2023/06/02 09:50:35;;;;;;;7.57;1.80;;;28.80;29.80;;;;;;5034581;28;20033;-66
2023/06/02 09:53:05;;;;;;;7.40;1.98;;;28.70;30.10;;;;;;5036670;28;20356;-68
2023/06/02 09:55:32;;;;;;;;;;;28.60;30.70;;;;;;5041659;28;20064;-67
2023/06/02 09:57:58;;;;;;;4.63;2.10;;;27.70;30.70;;;;;;5040776;28;19932;-67
2023/06/02 10:00:24;;;;;;;5.88;1.38;;;27.30;32.40;;;;;;5038662;28;20033;-67
2023/06/02 10:02:51;;;;;;;3.08;1.52;;;27.20;32.40;;;;;;5027543;28;20060;-67
2023/06/02 10:05:17;;;;;;;2.47;1.13;;;26.50;31.90;;;;;;5040278;28;20041;-66
2023/06/02 10:08:11;;;;;;;6.45;1.40;;;25.80;32.80;;;;;;5023909;28;20068;-67
2023/06/02 10:11:04;;;;;;;5.75;1.38;;;25.00;33.80;;;;;;5038177;28;20190;-66
2023/06/02 10:14:07;;;;;;;6.07;1.60;;;24.20;34.90;;;;;;5049210;28;20433;-66
2023/06/02 10:16:57;;;;;;;4.78;1.30;;;24.50;35.30;;;;;;5042174;28;20048;-67
2023/06/02 10:19:50;;;;;;;3.65;1.00;;;24.80;34.80;;;;;;5046107;28;20037;-66
2023/06/02 10:22:22;;;;;;;6.20;1.50;;;24.30;33.60;;;;;;5024391;28;20045;-67
2023/06/02 10:25:35;;;;;;;3.20;1.15;;;23.70;34.30;;;;;;5046500;28;20049;-67
2023/06/02 10:28:02;;;;;;;3.38;1.50;;;24.30;33.10;;;;;;5037909;28;20136;-67
2023/06/02 10:30:28;;;;;;;3.15;1.08;;;24.00;34.10;;;;;;5047305;28;20049;-67
2023/06/02 10:32:55;;;;;;;1.80;0.88;;;24.00;34.00;;;;;;5044212;28;20040;-66
2023/06/02 10:35:21;;;;;;;2.63;1.20;;;24.30;33.60;;;;;;5044266;28;20095;-67
2023/06/02 10:37:48;;;;;;;3.22;1.00;;;24.00;34.00;;;;;;5041164;28;20045;-67
2023/06/02 10:40:14;;;;;;;2.90;0.98;;;24.00;34.10;;;;;;5041820;28;20131;-67
2023/06/02 10:43:10;;;;;;;3.70;1.00;;;24.60;33.20;;;;;;5029880;28;20045;-67
2023/06/02 10:45:36;;;;;;;3.85;0.80;;;25.70;32.70;;;;;;5028600;28;20480;-67
2023/06/02 10:48:41;;;;;;;1.90;1.08;;;27.20;31.30;;;;;;5042402;28;20068;-67
2023/06/02 10:51:08;;;;;;;3.35;1.10;;;28.10;28.30;;;;;;5047586;28;20041;-68
2023/06/02 10:54:06;;;;;;;2.28;0.93;;;29.20;29.00;;;;;;5047461;28;20122;-66
2023/06/02 10:56:42;;;;;;;1.85;0.90;;;29.70;27.90;;;;;;5047999;28;20120;-68
2023/06/02 10:59:09;;;;;;;3.75;1.10;;;29.20;26.70;;;;;;5048665;28;20123;-67
2023/06/02 11:01:51;;;;;;;1.77;0.70;;;28.30;28.40;;;;;;5047892;28;20117;-67
2023/06/02 11:04:24;;;;;;;2.50;0.88;;;27.40;28.80;;;;;;5050800;28;20083;-67
2023/06/02 11:07:15;;;;;;;4.13;1.10;;;26.70;29.10;;;;;;5028536;28;20047;-68
2023/06/02 11:09:43;;;;;;;1.40;0.88;;;26.10;27.20;;;;;;5027878;28;20029;-67
2023/06/02 11:12:09;;;;;;;3.30;1.00;;;25.30;29.50;;;;;;5035987;28;20073;-66
2023/06/02 11:15:04;;;;;;;2.42;0.90;;;25.00;29.90;;;;;;5044307;28;20361;-67
2023/06/02 11:17:33;;;;;;;3.70;0.90;;;24.70;29.50;;;;;;5020453;28;20097;-66
2023/06/02 11:19:59;;;;;;;3.25;0.75;;;24.30;30.10;;;;;;5046890;28;20033;-65
2023/06/02 11:22:26;;;;;;;1.77;0.70;;;24.30;29.90;;;;;;5043582;28;20041;-65
2023/06/02 11:24:52;;;;;;;1.85;1.02;;;24.00;29.70;;;;;;5026543;28;20503;-65
2023/06/02 11:27:18;;;;;;;1.30;0.80;;;23.60;28.70;;;;;;5039629;28;20047;-65
2023/06/02 11:29:44;;;;;;;1.45;0.85;;;23.50;28.50;;;;;;5045310;28;20056;-63
2023/06/02 11:32:13;;;;;;;1.27;0.75;;;23.40;29.10;;;;;;5035569;28;20388;-66
2023/06/02 11:34:39;;;;;;;3.55;0.95;;;23.40;29.20;;;;;;5046346;28;20048;-70
2023/06/02 11:37:13;;;;;;;2.95;1.00;;;23.30;28.80;;;;;;5046268;28;20045;-65
2023/06/02 11:39:52;;;;;;;3.42;0.80;;;22.90;27.20;;;;;;5027841;28;20110;-65
2023/06/02 11:42:18;;;;;;;2.20;0.90;;;22.80;28.20;;;;;;5033905;28;20400;-64
2023/06/02 11:44:48;;;;;;;1.85;0.70;;;22.50;28.70;;;;;;5030159;28;20037;-66
2023/06/02 11:47:18;;;;;;;;;;;22.60;28.70;;;;;;5040412;28;20570;-65
2023/06/02 11:49:43;;;;;;;2.50;1.30;;;22.60;29.10;;;;;;5037269;28;19944;-65
2023/06/02 11:52:10;;;;;;;2.35;1.05;;;22.70;29.90;;;;;;5042896;28;20516;-66
2023/06/02 11:54:56;;;;;;;2.45;0.98;;;22.80;30.10;;;;;;5042749;28;20563;-66
2023/06/02 11:57:30;;;;;;;5.88;1.20;;;22.80;29.90;;;;;;5038022;28;20041;-65
2023/06/02 12:00:09;;;;;;;3.78;0.80;;;22.70;29.30;;;;;;5039366;28;20496;-65
2023/06/02 12:02:39;;;;;;;1.80;0.77;;;22.50;29.70;;;;;;5048698;28;20148;-65
2023/06/02 12:05:31;;;;;;;2.97;0.68;;;22.50;30.40;;;;;;5048207;28;20072;-66
2023/06/02 12:08:22;;;;;;;1.52;0.80;;;22.40;29.90;;;;;;5043396;28;20041;-65
2023/06/02 12:10:48;;;;;;;3.80;0.98;;;22.70;30.20;;;;;;5037543;28;20045;-66
2023/06/02 12:13:28;;;;;;;3.05;1.15;;;23.40;30.00;;;;;;5026114;28;20453;-65
2023/06/02 12:15:54;;;;;;;6.67;0.97;;;24.10;29.80;;;;;;5045141;28;20397;-63
2023/06/02 12:18:28;;;;;;;4.47;1.35;;;25.50;29.10;;;;;;5040554;28;20068;-65
2023/06/02 12:20:55;;;;;;;5.28;1.08;;;27.10;27.20;;;;;;5043038;28;20041;-66
2023/06/02 12:23:20;;;;;;;2.42;0.80;;;27.70;26.30;;;;;;5027788;28;20073;-65
2023/06/02 12:25:56;;;;;;;3.40;1.08;;;28.40;25.80;;;;;;5048290;28;20033;-65
2023/06/02 12:28:22;;;;;;;3.17;1.08;;;27.90;25.70;;;;;;5047007;28;20140;-66
2023/06/02 12:30:48;;;;;;;4.32;1.10;;;27.40;26.50;;;;;;5044495;28;20432;-65
2023/06/02 12:33:14;;;;;;;1.77;1.15;;;26.70;27.50;;;;;;5028648;28;20092;-66
2023/06/02 12:35:40;;;;;;;3.22;1.10;;;25.90;28.30;;;;;;5040605;28;20082;-66
2023/06/02 12:38:08;;;;;;;2.75;1.15;;;25.50;29.30;;;;;;5042138;28;20194;-66
2023/06/02 12:40:35;;;;;;;2.97;1.30;;;27.10;28.90;;;;;;5031194;28;20132;-66
2023/06/02 12:43:01;;;;;;;1.77;1.08;;;29.50;27.30;;;;;;5043942;28;20028;-67
2023/06/02 12:45:27;;;;;;;2.97;1.00;;;30.70;26.10;;;;;;5028076;28;20094;-65
2023/06/02 12:47:54;;;;;;;5.30;1.60;;;31.80;25.50;;;;;;5039522;28;20472;-66
2023/06/02 12:50:24;;;;;;;3.28;1.10;;;30.70;25.30;;;;;;5044864;28;20053;-66